createdAt,value
2023-04-25T00:01:28.618Z,14.50
2023-04-25T00:03:55.386Z,14.40
2023-04-25T00:06:22.401Z,14.40
2023-04-25T00:08:48.875Z,14.40
2023-04-25T00:11:15.374Z,14.50
2023-04-25T00:13:41.854Z,14.40
2023-04-25T00:16:08.358Z,14.50
2023-04-25T00:18:34.908Z,14.40
2023-04-25T00:21:01.399Z,14.40
2023-04-25T00:23:27.860Z,14.40
2023-04-25T00:25:54.342Z,14.50
2023-04-25T00:28:20.833Z,14.40
2023-04-25T00:30:47.293Z,14.40
2023-04-25T00:33:13.810Z,14.40
2023-04-25T00:35:40.340Z,14.40
2023-04-25T00:38:06.793Z,14.40
2023-04-25T00:40:33.251Z,14.40
2023-04-25T00:42:59.742Z,14.40
2023-04-25T00:45:26.224Z,14.40
2023-04-25T00:47:52.808Z,14.40
2023-04-25T00:50:19.347Z,14.40
2023-04-25T00:52:45.816Z,14.40
2023-04-25T00:55:12.267Z,14.40
2023-04-25T00:57:41.365Z,14.40
2023-04-25T01:00:07.847Z,14.40
2023-04-25T01:02:34.466Z,14.40
2023-04-25T01:05:01.079Z,14.40
2023-04-25T01:07:27.640Z,14.40
2023-04-25T01:09:54.145Z,14.30
2023-04-25T01:12:20.635Z,14.40
2023-04-25T01:14:47.135Z,14.30
2023-04-25T01:17:13.633Z,14.40
2023-04-25T01:19:40.112Z,14.40
2023-04-25T01:22:06.617Z,14.40
2023-04-25T01:24:33.090Z,14.40
2023-04-25T01:26:59.571Z,14.40
2023-04-25T01:29:26.067Z,14.40
2023-04-25T01:31:52.662Z,14.40
2023-04-25T01:34:19.220Z,14.30
2023-04-25T01:36:45.695Z,14.40
2023-04-25T01:39:12.159Z,14.40
2023-04-25T01:41:38.639Z,14.40
2023-04-25T01:44:05.142Z,14.40
2023-04-25T01:46:31.691Z,14.40
2023-04-25T01:48:58.301Z,14.40
2023-04-25T01:51:24.777Z,14.40
2023-04-25T01:53:51.557Z,14.40
2023-04-25T01:56:23.622Z,14.40
2023-04-25T01:58:50.283Z,14.40
2023-04-25T02:01:16.787Z,14.40
2023-04-25T02:03:43.435Z,14.30
2023-04-25T02:06:09.975Z,14.40
2023-04-25T02:08:36.482Z,14.40
2023-04-25T02:11:02.960Z,14.40
2023-04-25T02:13:29.439Z,14.40
2023-04-25T02:15:56.002Z,14.30
2023-04-25T02:18:22.535Z,14.30
2023-04-25T02:20:49.082Z,14.40
2023-04-25T02:23:15.565Z,14.40
2023-04-25T02:25:42.037Z,14.40
2023-04-25T02:28:08.523Z,14.30
2023-04-25T02:30:35.003Z,14.40
2023-04-25T02:33:05.540Z,14.30
2023-04-25T02:35:32.087Z,14.30
2023-04-25T02:37:58.570Z,14.30
2023-04-25T02:40:25.059Z,14.30
2023-04-25T02:42:53.463Z,14.40
2023-04-25T02:45:19.938Z,14.40
2023-04-25T02:47:47.476Z,14.30
2023-04-25T02:50:13.962Z,14.30
2023-04-25T02:52:40.416Z,14.30
2023-04-25T02:55:06.893Z,14.40
2023-04-25T02:57:33.382Z,14.40
2023-04-25T02:59:59.854Z,14.30
2023-04-25T03:02:26.646Z,14.30
2023-04-25T03:04:53.196Z,14.30
2023-04-25T03:07:19.697Z,14.30
2023-04-25T03:09:46.189Z,14.30
2023-04-25T03:12:12.686Z,14.40
2023-04-25T03:14:39.176Z,14.40
2023-04-25T03:17:05.686Z,14.30
2023-04-25T03:19:32.170Z,14.30
2023-04-25T03:21:58.670Z,14.30
2023-04-25T03:24:25.170Z,14.30
2023-04-25T03:26:51.631Z,14.30
2023-04-25T03:29:18.105Z,14.30
2023-04-25T03:31:44.625Z,14.30
2023-04-25T03:34:11.129Z,14.30
2023-04-25T03:36:39.132Z,14.30
2023-04-25T03:39:06.884Z,14.30
2023-04-25T03:41:33.344Z,14.30
2023-04-25T03:43:59.837Z,14.30
2023-04-25T03:46:26.357Z,14.30
2023-04-25T03:48:52.847Z,14.30
2023-04-25T03:51:19.321Z,14.30
2023-04-25T03:53:45.792Z,14.30
2023-04-25T03:56:12.256Z,14.30
2023-04-25T03:58:38.735Z,14.30
2023-04-25T04:01:05.234Z,14.30
2023-04-25T04:03:31.980Z,14.30
2023-04-25T04:05:58.577Z,14.30
2023-04-25T04:08:25.036Z,14.30
2023-04-25T04:10:51.503Z,14.20
2023-04-25T04:13:18.020Z,14.20
2023-04-25T04:15:44.585Z,14.30
2023-04-25T04:18:11.182Z,14.20
2023-04-25T04:20:37.665Z,14.20
2023-04-25T04:23:04.144Z,14.30
2023-04-25T04:25:35.553Z,14.30
2023-04-25T04:28:02.031Z,14.20
2023-04-25T04:30:28.524Z,14.20
2023-04-25T04:32:55.065Z,14.20
2023-04-25T04:35:21.551Z,14.20
2023-04-25T04:37:48.014Z,14.20
2023-04-25T04:40:17.581Z,14.30
2023-04-25T04:42:44.043Z,14.30
2023-04-25T04:45:10.532Z,14.30
2023-04-25T04:47:37.028Z,14.30
2023-04-25T04:50:03.569Z,14.30
2023-04-25T04:52:30.051Z,14.30
2023-04-25T04:54:56.541Z,14.30
2023-04-25T04:57:23.016Z,14.30
2023-04-25T04:59:49.492Z,14.20
2023-04-25T05:02:16.062Z,14.20
2023-04-25T05:04:42.705Z,14.20
2023-04-25T05:07:09.210Z,14.30
2023-04-25T05:09:41.585Z,14.30
2023-04-25T05:12:08.057Z,14.30
2023-04-25T05:14:34.535Z,14.30
2023-04-25T05:17:01.063Z,14.30
2023-04-25T05:19:27.563Z,14.30
2023-04-25T05:21:54.058Z,14.30
2023-04-25T05:24:20.530Z,14.30
2023-04-25T05:26:47.006Z,14.30
2023-04-25T05:29:13.489Z,14.30
2023-04-25T05:31:39.976Z,14.30
2023-04-25T05:34:06.499Z,14.30
2023-04-25T05:36:32.969Z,14.30
2023-04-25T05:38:59.435Z,14.30
2023-04-25T05:41:25.893Z,14.30
2023-04-25T05:43:53.620Z,14.20
2023-04-25T05:46:21.309Z,14.20
2023-04-25T05:48:47.801Z,14.20
2023-04-25T05:51:14.279Z,14.20
2023-04-25T05:53:40.767Z,14.20
2023-04-25T05:56:07.234Z,14.20
2023-04-25T05:58:35.618Z,14.20
2023-04-25T06:01:02.089Z,14.20
2023-04-25T06:06:19.014Z,14.20
2023-04-25T06:08:47.632Z,14.20
2023-04-25T06:11:14.112Z,14.10
2023-04-25T06:13:40.635Z,14.10
2023-04-25T06:16:07.191Z,14.20
2023-04-25T06:18:33.715Z,14.20
2023-04-25T06:21:00.224Z,14.20
2023-04-25T06:23:26.703Z,14.30
2023-04-25T06:25:53.196Z,14.30
2023-04-25T06:28:19.701Z,14.20
2023-04-25T06:30:46.176Z,14.20
2023-04-25T06:33:12.668Z,14.30
2023-04-25T06:35:39.143Z,14.10
2023-04-25T06:38:05.614Z,14.20
2023-04-25T06:40:32.083Z,14.20
2023-04-25T06:42:58.556Z,14.20
2023-04-25T06:45:25.049Z,14.20
2023-04-25T06:47:51.590Z,14.20
2023-04-25T06:50:18.119Z,14.10
2023-04-25T06:52:44.599Z,14.20
2023-04-25T06:55:11.086Z,14.10
2023-04-25T06:57:37.561Z,14.10
2023-04-25T07:00:04.038Z,14.10
2023-04-25T07:02:30.731Z,14.10
2023-04-25T07:04:57.360Z,14.10
2023-04-25T07:07:23.880Z,14.10
2023-04-25T07:09:50.370Z,14.10
2023-04-25T07:12:16.832Z,14.00
2023-04-25T07:14:43.330Z,14.10
2023-04-25T07:17:09.813Z,14.00
2023-04-25T07:19:36.304Z,14.00
2023-04-25T07:22:02.766Z,14.00
2023-04-25T07:24:29.236Z,14.00
2023-04-25T07:26:55.730Z,14.10
2023-04-25T07:29:22.218Z,14.10
2023-04-25T07:31:48.734Z,14.00
2023-04-25T07:34:15.255Z,14.00
2023-04-25T07:36:41.743Z,14.00
2023-04-25T07:39:08.245Z,13.90
2023-04-25T07:41:41.851Z,13.90
2023-04-25T07:44:08.345Z,14.00
2023-04-25T07:46:34.860Z,14.00
2023-04-25T07:49:01.390Z,14.00
2023-04-25T07:51:29.709Z,14.10
2023-04-25T07:53:56.168Z,14.10
2023-04-25T07:56:22.689Z,14.10
2023-04-25T07:58:49.389Z,14.10
2023-04-25T08:01:16.160Z,14.10
2023-04-25T08:03:42.917Z,14.10
2023-04-25T08:06:09.818Z,14.10
2023-04-25T08:08:36.465Z,14.10
2023-04-25T08:11:02.924Z,14.20
2023-04-25T08:13:29.405Z,14.20
2023-04-25T08:15:55.989Z,14.20
2023-04-25T08:18:22.556Z,14.30
2023-04-25T08:20:49.122Z,14.20
2023-04-25T08:23:15.608Z,14.20
2023-04-25T08:25:42.084Z,14.30
2023-04-25T08:30:43.058Z,14.20
2023-04-25T08:33:09.616Z,14.20
2023-04-25T08:35:36.170Z,14.10
2023-04-25T08:38:02.849Z,14.20
2023-04-25T08:40:29.337Z,14.20
2023-04-25T08:42:55.801Z,14.20
2023-04-25T08:45:22.301Z,14.20
2023-04-25T08:47:48.819Z,14.20
2023-04-25T08:50:15.319Z,14.20
2023-04-25T08:52:47.893Z,14.30
2023-04-25T08:55:17.778Z,14.30
2023-04-25T08:57:44.272Z,14.30
2023-04-25T09:00:10.772Z,14.30
2023-04-25T09:02:37.435Z,14.30
2023-04-25T09:05:04.028Z,14.20
2023-04-25T09:07:30.515Z,14.30
2023-04-25T09:09:57.012Z,14.30
2023-04-25T09:12:23.476Z,14.30
2023-04-25T09:14:49.979Z,14.20
2023-04-25T09:17:16.447Z,14.20
2023-04-25T09:19:42.924Z,14.20
2023-04-25T09:22:09.426Z,14.20
2023-04-25T09:24:35.900Z,14.20
2023-04-25T09:27:02.379Z,14.20
2023-04-25T09:29:28.840Z,14.30
2023-04-25T09:31:55.435Z,14.30
2023-04-25T09:34:21.963Z,14.40
2023-04-25T09:36:48.528Z,14.30
2023-04-25T09:39:14.986Z,14.40
2023-04-25T09:41:41.536Z,14.40
2023-04-25T09:44:08.097Z,14.30
2023-04-25T09:46:34.737Z,14.30
2023-04-25T09:49:01.316Z,14.30
2023-04-25T09:51:27.785Z,14.30
2023-04-25T09:53:54.507Z,14.30
2023-04-25T09:56:21.053Z,14.30
2023-04-25T09:58:47.536Z,14.20
2023-04-25T10:01:14.074Z,14.30
2023-04-25T10:03:40.870Z,14.20
2023-04-25T10:06:07.559Z,14.20
2023-04-25T10:08:34.054Z,14.30
2023-04-25T10:11:00.546Z,14.30
2023-04-25T10:13:27.109Z,14.30
2023-04-25T10:15:53.690Z,14.30
2023-04-25T10:18:20.164Z,14.30
2023-04-25T10:20:46.704Z,14.30
2023-04-25T10:23:13.174Z,14.30
2023-04-25T10:25:41.853Z,14.30
2023-04-25T10:28:08.332Z,14.30
2023-04-25T10:30:34.876Z,14.30
2023-04-25T10:33:01.373Z,14.30
2023-04-25T10:35:27.867Z,14.20
2023-04-25T10:37:54.327Z,14.20
2023-04-25T10:40:20.833Z,14.20
2023-04-25T10:42:47.314Z,14.10
2023-04-25T10:45:13.789Z,14.20
2023-04-25T10:47:40.304Z,14.20
2023-04-25T10:50:06.791Z,14.20
2023-04-25T10:52:33.270Z,14.20
2023-04-25T10:54:59.767Z,14.20
2023-04-25T10:57:29.879Z,14.20
2023-04-25T10:59:56.357Z,14.10
2023-04-25T11:02:22.914Z,14.10
2023-04-25T11:04:49.624Z,14.10
2023-04-25T11:07:16.235Z,14.10
2023-04-25T11:09:42.720Z,14.10
2023-04-25T11:12:09.183Z,14.10
2023-04-25T11:14:35.687Z,14.10
2023-04-25T11:17:02.205Z,14.10
2023-04-25T11:19:28.752Z,14.20
2023-04-25T11:21:55.210Z,14.20
2023-04-25T11:24:21.671Z,14.20
2023-04-25T11:26:48.139Z,14.10
2023-04-25T11:29:14.774Z,14.10
2023-04-25T11:31:41.327Z,14.10
2023-04-25T11:34:07.800Z,14.20
2023-04-25T11:36:34.273Z,14.20
2023-04-25T11:39:00.729Z,14.10
2023-04-25T11:41:27.218Z,14.10
2023-04-25T11:43:53.901Z,14.20
2023-04-25T11:46:20.607Z,14.10
2023-04-25T11:48:47.121Z,14.10
2023-04-25T11:51:13.609Z,14.20
2023-04-25T11:53:40.067Z,14.20
2023-04-25T11:56:06.537Z,14.10
2023-04-25T11:58:33.037Z,14.20
2023-04-25T12:00:59.525Z,14.10
2023-04-25T12:03:26.207Z,14.10
2023-04-25T12:05:53.002Z,14.20
2023-04-25T12:08:19.839Z,14.20
2023-04-25T12:10:46.318Z,14.10
2023-04-25T12:13:12.817Z,14.10
2023-04-25T12:15:39.360Z,14.20
2023-04-25T12:18:05.872Z,14.20
2023-04-25T12:20:32.353Z,14.10
2023-04-25T12:22:58.835Z,14.20
2023-04-25T12:25:25.288Z,14.20
2023-04-25T12:27:51.828Z,14.20
2023-04-25T12:30:18.287Z,14.20
2023-04-25T12:32:44.807Z,14.20
2023-04-25T12:35:11.319Z,14.20
2023-04-25T12:37:37.800Z,14.20
2023-04-25T12:40:04.257Z,14.20
2023-04-25T12:42:30.790Z,14.20
2023-04-25T12:44:59.923Z,14.20
2023-04-25T12:47:26.457Z,14.30
2023-04-25T12:49:52.960Z,14.30
2023-04-25T12:52:19.428Z,14.30
2023-04-25T12:54:45.903Z,14.30
2023-04-25T12:57:12.433Z,14.30
2023-04-25T12:59:38.932Z,14.30
2023-04-25T13:02:05.525Z,14.30
2023-04-25T13:04:32.252Z,14.30
2023-04-25T13:06:58.865Z,14.30
2023-04-25T13:09:25.345Z,14.30
2023-04-25T13:11:52.354Z,14.30
2023-04-25T13:14:20.126Z,14.30
2023-04-25T13:16:46.673Z,14.20
2023-04-25T13:19:13.184Z,14.20
2023-04-25T13:21:39.652Z,14.30
2023-04-25T13:24:06.118Z,14.20
2023-04-25T13:26:32.566Z,14.30
2023-04-25T13:28:59.063Z,14.30
2023-04-25T13:31:25.561Z,14.30
2023-04-25T13:33:52.435Z,14.30
2023-04-25T13:36:19.271Z,14.30
2023-04-25T13:38:45.787Z,14.30
2023-04-25T13:41:12.298Z,14.30
2023-04-25T13:43:39.178Z,14.30
2023-04-25T13:46:05.999Z,14.30
2023-04-25T13:48:32.462Z,14.30
2023-04-25T13:50:58.925Z,14.20
2023-04-25T13:53:25.411Z,14.20
2023-04-25T13:55:51.875Z,14.20
2023-04-25T13:58:18.346Z,14.30
2023-04-25T14:00:44.817Z,14.30
2023-04-25T14:03:11.438Z,14.30
2023-04-25T14:05:37.996Z,14.20
2023-04-25T14:08:04.473Z,14.30
2023-04-25T14:10:30.896Z,14.20
2023-04-25T14:12:57.452Z,14.20
2023-04-25T14:15:23.968Z,14.30
2023-04-25T14:17:50.530Z,14.30
2023-04-25T14:20:18.017Z,14.30
2023-04-25T14:22:44.491Z,14.30
2023-04-25T14:25:10.975Z,14.40
2023-04-25T14:27:37.448Z,14.30
2023-04-25T14:30:06.031Z,14.30
2023-04-25T14:32:32.593Z,14.30
2023-04-25T14:34:59.090Z,14.40
2023-04-25T14:37:25.592Z,14.40
2023-04-25T14:39:52.074Z,14.30
2023-04-25T14:42:18.559Z,14.30
2023-04-25T14:44:45.030Z,14.40
2023-04-25T14:47:11.505Z,14.40
2023-04-25T14:49:38.003Z,14.40
2023-04-25T14:52:04.461Z,14.40
2023-04-25T14:54:30.920Z,14.40
2023-04-25T14:56:57.392Z,14.40
2023-04-25T14:59:24.092Z,14.40
2023-04-25T15:01:50.579Z,14.40
2023-04-25T15:04:17.123Z,14.40
2023-04-25T15:06:43.694Z,14.40
2023-04-25T15:09:10.162Z,14.40
2023-04-25T15:11:36.628Z,14.40
2023-04-25T15:14:03.113Z,14.40
2023-04-25T15:16:29.624Z,14.40
2023-04-25T15:18:56.129Z,14.40
2023-04-25T15:21:22.606Z,14.40
2023-04-25T15:23:49.315Z,14.30
2023-04-25T15:26:16.031Z,14.40
2023-04-25T15:28:42.504Z,14.40
2023-04-25T15:31:08.984Z,14.40
2023-04-25T15:33:35.473Z,14.50
2023-04-25T15:36:01.956Z,14.50
2023-04-25T15:38:28.425Z,14.40
2023-04-25T15:40:54.913Z,14.40
2023-04-25T15:43:21.445Z,14.50
2023-04-25T15:45:48.009Z,14.50
2023-04-25T15:48:18.332Z,14.50
2023-04-25T15:50:44.799Z,14.50
2023-04-25T15:53:11.259Z,14.50
2023-04-25T15:55:37.684Z,14.50
2023-04-25T15:58:06.117Z,14.50
2023-04-25T16:00:32.582Z,14.50
2023-04-25T16:02:59.311Z,14.60
2023-04-25T16:05:25.854Z,14.60
2023-04-25T16:07:52.344Z,14.50
2023-04-25T16:10:22.022Z,14.50
2023-04-25T16:12:48.484Z,14.50
2023-04-25T16:15:14.970Z,14.50
2023-04-25T16:17:41.486Z,14.50
2023-04-25T16:20:08.013Z,14.50
2023-04-25T16:22:34.487Z,14.50
2023-04-25T16:25:00.944Z,14.50
2023-04-25T16:27:27.434Z,14.50
2023-04-25T16:29:53.912Z,14.50
2023-04-25T16:32:20.382Z,14.50
2023-04-25T16:34:46.885Z,14.50
2023-04-25T16:37:13.366Z,14.50
2023-04-25T16:39:39.849Z,14.50
2023-04-25T16:42:06.335Z,14.50
2023-04-25T16:44:32.833Z,14.50
2023-04-25T16:46:59.532Z,14.50
2023-04-25T16:49:26.173Z,14.50
2023-04-25T16:51:52.638Z,14.60
2023-04-25T16:54:19.112Z,14.50
2023-04-25T16:56:45.574Z,14.50
2023-04-25T16:59:12.133Z,14.50
2023-04-25T17:01:38.613Z,14.50
2023-04-25T17:04:06.254Z,14.50
2023-04-25T17:06:36.237Z,14.60
2023-04-25T17:09:02.746Z,14.60
2023-04-25T17:11:29.229Z,14.60
2023-04-25T17:13:55.701Z,14.60
2023-04-25T17:16:22.235Z,14.60
2023-04-25T17:18:48.853Z,14.60
2023-04-25T17:21:15.405Z,14.60
2023-04-25T17:23:41.863Z,14.60
2023-04-25T17:26:08.337Z,14.60
2023-04-25T17:28:34.825Z,14.60
2023-04-25T17:31:01.350Z,14.60
2023-04-25T17:33:27.865Z,14.60
2023-04-25T17:35:54.364Z,14.60
2023-04-25T17:38:20.866Z,14.60
2023-04-25T17:40:47.349Z,14.60
2023-04-25T17:43:13.845Z,14.60
2023-04-25T17:45:40.370Z,14.60
2023-04-25T17:48:06.953Z,14.60
2023-04-25T17:50:33.499Z,14.50
2023-04-25T17:52:59.978Z,14.60
2023-04-25T17:55:26.433Z,14.60
2023-04-25T17:57:52.889Z,14.60
2023-04-25T18:00:24.226Z,14.50
2023-04-25T18:02:50.779Z,14.50
2023-04-25T18:05:17.401Z,14.50
2023-04-25T18:07:43.913Z,14.50
2023-04-25T18:10:10.385Z,14.50
2023-04-25T18:12:36.873Z,14.50
2023-04-25T18:15:03.367Z,14.50
2023-04-25T18:17:29.914Z,14.50
2023-04-25T18:19:56.424Z,14.50
2023-04-25T18:22:22.901Z,14.50
2023-04-25T18:24:49.360Z,14.50
2023-04-25T18:27:15.836Z,14.40
2023-04-25T18:29:42.319Z,14.50
2023-04-25T18:32:08.835Z,14.50
2023-04-25T18:34:35.355Z,14.50
2023-04-25T18:37:01.868Z,14.50
2023-04-25T18:39:28.363Z,14.50
2023-04-25T18:41:59.302Z,14.40
2023-04-25T18:44:27.734Z,14.40
2023-04-25T18:46:54.211Z,14.50
2023-04-25T18:49:20.699Z,14.40
2023-04-25T18:51:47.162Z,14.40
2023-04-25T18:54:13.636Z,14.50
2023-04-25T18:56:40.142Z,14.40
2023-04-25T18:59:06.638Z,14.40
2023-04-25T19:01:36.358Z,14.40
2023-04-25T19:04:06.904Z,14.40
2023-04-25T19:06:33.714Z,14.40
2023-04-25T19:09:00.211Z,14.40
2023-04-25T19:11:30.298Z,14.40
2023-04-25T19:13:56.999Z,14.40
2023-04-25T19:16:23.538Z,14.40
2023-04-25T19:18:50.171Z,14.40
2023-04-25T19:21:18.299Z,14.30
2023-04-25T19:23:44.776Z,14.30
2023-04-25T19:26:11.251Z,14.30
2023-04-25T19:28:37.715Z,14.30
2023-04-25T19:31:04.239Z,14.30
2023-04-25T19:33:30.728Z,14.30
2023-04-25T19:35:57.209Z,14.30
2023-04-25T19:38:23.682Z,14.30
2023-04-25T19:40:50.199Z,14.30
2023-04-25T19:43:16.818Z,14.30
2023-04-25T19:45:43.269Z,14.30
2023-04-25T19:48:09.820Z,14.30
2023-04-25T19:50:36.298Z,14.30
2023-04-25T19:53:02.782Z,14.30
2023-04-25T19:55:29.286Z,14.30
2023-04-25T19:57:55.755Z,14.30
2023-04-25T20:00:22.254Z,14.30
2023-04-25T20:02:48.809Z,14.30
2023-04-25T20:05:15.395Z,14.30
2023-04-25T20:07:41.879Z,14.30
2023-04-25T20:10:08.354Z,14.30
2023-04-25T20:12:34.836Z,14.30
2023-04-25T20:15:01.315Z,14.30
2023-04-25T20:17:30.355Z,14.20
2023-04-25T20:19:56.852Z,14.20
2023-04-25T20:22:23.328Z,14.20
2023-04-25T20:24:49.777Z,14.30
2023-04-25T20:27:16.247Z,14.20
2023-04-25T20:29:42.723Z,14.20
2023-04-25T20:32:09.232Z,14.20
2023-04-25T20:34:35.799Z,14.20
2023-04-25T20:37:02.284Z,14.20
2023-04-25T20:39:28.743Z,14.20
2023-04-25T20:41:55.212Z,14.20
2023-04-25T20:44:24.356Z,14.20
2023-04-25T20:46:50.828Z,14.20
2023-04-25T20:49:17.276Z,14.20
2023-04-25T20:51:43.782Z,14.20
2023-04-25T20:54:11.152Z,14.20
2023-04-25T20:56:37.778Z,14.20
2023-04-25T20:59:04.259Z,14.20
2023-04-25T21:01:30.765Z,14.20
2023-04-25T21:03:57.619Z,14.20
2023-04-25T21:06:24.272Z,14.20
2023-04-25T21:08:50.889Z,14.20
2023-04-25T21:11:17.522Z,14.20
2023-04-25T21:13:44.011Z,14.20
2023-04-25T21:16:10.498Z,14.20
2023-04-25T21:18:36.954Z,14.20
2023-04-25T21:21:03.471Z,14.20
2023-04-25T21:23:29.966Z,14.20
2023-04-25T21:25:56.436Z,14.20
2023-04-25T21:28:22.895Z,14.20
2023-04-25T21:30:49.611Z,14.10
2023-04-25T21:33:16.138Z,14.10
2023-04-25T21:35:42.630Z,14.10
2023-04-25T21:38:09.107Z,14.10
2023-04-25T21:40:35.600Z,14.10
2023-04-25T21:43:02.078Z,14.20
2023-04-25T21:45:28.557Z,14.10
2023-04-25T21:47:55.160Z,14.10
2023-04-25T21:50:21.686Z,14.20
2023-04-25T21:52:48.169Z,14.20
2023-04-25T21:55:14.650Z,14.10
2023-04-25T21:57:41.169Z,14.10
2023-04-25T22:00:07.649Z,14.10
2023-04-25T22:02:34.204Z,14.10
2023-04-25T22:05:00.753Z,14.10
2023-04-25T22:07:30.426Z,14.10
2023-04-25T22:09:56.900Z,14.10
2023-04-25T22:12:23.748Z,14.10
2023-04-25T22:14:50.317Z,14.10
2023-04-25T22:17:16.816Z,14.10
2023-04-25T22:19:43.336Z,14.10
2023-04-25T22:22:09.833Z,14.10
2023-04-25T22:24:36.315Z,14.10
2023-04-25T22:27:02.800Z,14.10
2023-04-25T22:29:29.279Z,14.10
2023-04-25T22:31:55.824Z,14.10
2023-04-25T22:34:22.307Z,14.10
2023-04-25T22:36:48.778Z,14.10
2023-04-25T22:39:15.266Z,14.10
2023-04-25T22:41:41.723Z,14.10
2023-04-25T22:44:08.202Z,14.10
2023-04-25T22:46:34.686Z,14.10
2023-04-25T22:49:01.169Z,14.10
2023-04-25T22:51:27.623Z,14.10
2023-04-25T22:53:54.089Z,14.10
2023-04-25T22:56:20.558Z,14.10
2023-04-25T22:58:48.482Z,14.10
2023-04-25T23:01:16.248Z,14.10
2023-04-25T23:03:44.925Z,14.10
2023-04-25T23:06:12.630Z,14.10
2023-04-25T23:08:39.086Z,14.10
2023-04-25T23:11:05.545Z,14.00
2023-04-25T23:13:32.027Z,14.00
2023-04-25T23:15:58.498Z,14.10
2023-04-25T23:18:24.975Z,14.00
2023-04-25T23:20:54.500Z,14.00
2023-04-25T23:23:20.983Z,14.00
2023-04-25T23:25:47.467Z,14.10
2023-04-25T23:28:13.948Z,14.10
2023-04-25T23:30:40.454Z,14.00
2023-04-25T23:33:07.018Z,14.00
2023-04-25T23:35:33.566Z,14.10
2023-04-25T23:38:00.059Z,14.00
2023-04-25T23:40:26.529Z,14.10
2023-04-25T23:42:53.017Z,14.00
2023-04-25T23:45:19.480Z,14.00
2023-04-25T23:47:45.983Z,14.00
2023-04-25T23:50:12.453Z,14.00
2023-04-25T23:52:39.028Z,14.00
2023-04-25T23:55:05.509Z,14.00
2023-04-25T23:57:31.997Z,13.90
2023-04-25T23:59:58.460Z,14.00
